Time;durP1;ratioP1;P1;durP2;ratioP2;P2;SDS_P1;SDS_P2;PMS_P1;PMS_P2;Temp;Humidity;BMP_temperature;BMP_pressure;BME280_temperature;BME280_humidity;BME280_pressure;Samples;Min_cycle;Max_cycle;Signal;HPM_P1;HPM_P2
2023/06/17 00:01:22;;;;;;;7.45;4.25;;;;;13.80;94247.00;;;;7396635;19;20515;-75
2023/06/17 00:03:57;;;;;;;4.50;4.00;;;;;13.60;94253.00;;;;7393774;19;20176;-73
2023/06/17 00:06:32;;;;;;;5.75;3.95;;;;;13.60;94247.00;;;;7396187;19;20521;-74
2023/06/17 00:09:07;;;;;;;6.65;4.43;;;;;13.70;94243.00;;;;7395775;19;20165;-74
2023/06/17 00:11:41;;;;;;;5.05;4.03;;;;;13.70;94249.00;;;;7396304;19;20149;-75
2023/06/17 00:14:08;;;;;;;7.75;4.22;;;;;13.90;94247.00;;;;7396072;19;20144;-75
2023/06/17 00:16:43;;;;;;;6.95;4.03;;;;;14.20;94244.00;;;;7394831;19;20147;-75
2023/06/17 00:19:15;;;;;;;5.90;3.90;;;;;14.40;94240.00;;;;7397721;19;20129;-75
2023/06/17 00:21:50;;;;;;;9.20;4.30;;;;;14.50;94244.00;;;;7396952;19;20173;-74
2023/06/17 00:24:17;;;;;;;6.03;4.38;;;;;14.30;94234.00;;;;7395279;19;20593;-74
2023/06/17 00:26:52;;;;;;;6.22;4.43;;;;;14.10;94229.00;;;;7395743;19;20132;-74
2023/06/17 00:29:19;;;;;;;5.63;4.28;;;;;13.80;94233.00;;;;7397811;19;20136;-75
2023/06/17 00:31:54;;;;;;;5.38;4.28;;;;;13.70;94233.00;;;;7385334;19;20135;-75
2023/06/17 00:34:22;;;;;;;5.45;4.20;;;;;13.80;94228.00;;;;7393360;19;20137;-75
2023/06/17 00:36:56;;;;;;;5.82;4.32;;;;;13.80;94230.00;;;;7396095;19;20132;-73
2023/06/17 00:39:24;;;;;;;5.47;4.07;;;;;13.70;94217.00;;;;7395108;19;20151;-74
2023/06/17 00:42:01;;;;;;;6.07;3.85;;;;;13.80;94220.00;;;;7395123;19;20502;-75
2023/06/17 00:44:35;;;;;;;4.63;3.85;;;;;13.70;94218.00;;;;7396194;19;20483;-74
2023/06/17 00:47:11;;;;;;;4.68;3.80;;;;;13.60;94214.00;;;;7393826;19;20444;-74
2023/06/17 00:49:46;;;;;;;6.68;4.07;;;;;13.70;94214.00;;;;7394016;19;20196;-74
2023/06/17 00:52:21;;;;;;;4.47;4.07;;;;;13.60;94214.00;;;;7396957;19;20137;-74
2023/06/17 00:55:09;;;;;;;10.43;3.67;;;;;13.50;94214.00;;;;7394574;19;20169;-75
2023/06/17 00:57:47;;;;;;;6.00;3.80;;;;;13.60;94207.00;;;;7394996;19;20434;-74
2023/06/17 01:00:17;;;;;;;6.13;4.22;;;;;13.60;94210.00;;;;7394261;19;20144;-81
2023/06/17 01:03:05;;;;;;;8.65;3.90;;;;;13.60;94206.00;;;;7390181;19;20217;-93
2023/06/17 01:05:40;;;;;;;6.03;3.88;;;;;13.60;94209.00;;;;7402533;19;20499;-90
2023/06/17 01:08:28;;;;;;;5.63;3.95;;;;;13.70;94204.00;;;;7402148;19;20140;-89
2023/06/17 01:11:12;;;;;;;5.45;3.58;;;;;13.50;94216.00;;;;7400479;19;20632;-90
2023/06/17 01:13:45;;;;;;;4.38;3.83;;;;;13.70;94210.00;;;;7401329;19;20658;-92
2023/06/17 01:16:21;;;;;;;4.75;3.60;;;;;13.50;94208.00;;;;7398846;19;20136;-91
2023/06/17 01:18:53;;;;;;;4.38;3.72;;;;;13.40;94210.00;;;;7400706;19;20506;-91
2023/06/17 01:21:29;;;;;;;5.55;3.78;;;;;13.40;94208.00;;;;7401349;19;20145;-91
2023/06/17 01:24:00;;;;;;;5.60;3.80;;;;;13.60;94199.00;;;;7400027;19;20175;-91
2023/06/17 01:26:35;;;;;;;7.88;4.07;;;;;13.40;94199.00;;;;7404062;19;20170;-93
2023/06/17 01:29:03;;;;;;;7.47;4.07;;;;;13.40;94196.00;;;;7403128;19;20615;-92
2023/06/17 01:31:31;;;;;;;5.70;3.70;;;;;13.60;94194.00;;;;7401602;19;20262;-92
2023/06/17 01:34:09;;;;;;;4.82;3.55;;;;;13.40;94203.00;;;;7405634;19;20165;-91
2023/06/17 01:36:38;;;;;;;5.35;4.20;;;;;13.40;94202.00;;;;7404536;19;20212;-92
2023/06/17 01:39:18;;;;;;;6.70;3.55;;;;;13.50;94208.00;;;;7402449;19;20156;-91
2023/06/17 01:41:55;;;;;;;4.72;3.80;;;;;13.40;94203.00;;;;7404725;19;20591;-92
2023/06/17 01:44:32;;;;;;;8.05;4.10;;;;;13.30;94193.00;;;;7406126;19;20146;-92
2023/06/17 01:47:00;;;;;;;4.32;3.83;;;;;13.10;94203.00;;;;7401635;19;20144;-91
2023/06/17 01:49:34;;;;;;;4.40;3.72;;;;;13.20;94200.00;;;;7404454;19;20152;-91
2023/06/17 01:52:02;;;;;;;5.90;4.30;;;;;13.20;94203.00;;;;7405931;19;20608;-92
2023/06/17 01:54:37;;;;;;;5.38;3.97;;;;;13.30;94205.00;;;;7403087;19;20477;-92
2023/06/17 01:57:05;;;;;;;5.57;3.97;;;;;13.30;94202.00;;;;7404754;19;20615;-92
2023/06/17 01:59:40;;;;;;;4.38;3.83;;;;;13.20;94196.00;;;;7405387;19;20196;-91
2023/06/17 02:02:14;;;;;;;7.38;3.30;;;;;13.20;94198.00;;;;7401718;19;20169;-92
2023/06/17 02:04:54;;;;;;;5.18;3.58;;;;;13.20;94191.00;;;;7404962;19;20555;-91
2023/06/17 02:07:32;;;;;;;4.28;3.35;;;;;13.20;94195.00;;;;7403030;19;20205;-91
2023/06/17 02:10:06;;;;;;;4.00;3.60;;;;;13.30;94187.00;;;;7401299;19;20152;-88
2023/06/17 02:12:34;;;;;;;4.38;3.63;;;;;13.40;94181.00;;;;7400756;19;20137;-89
2023/06/17 02:15:09;;;;;;;7.43;3.92;;;;;13.30;94181.00;;;;7401613;19;20144;-88
2023/06/17 02:17:37;;;;;;;5.35;3.63;;;;;13.40;94177.00;;;;7403161;19;20145;-86
2023/06/17 02:20:17;;;;;;;5.47;3.53;;;;;13.40;94181.00;;;;7400990;19;20630;-87
2023/06/17 02:22:52;;;;;;;5.97;3.60;;;;;13.50;94171.00;;;;7399799;19;20150;-88
2023/06/17 02:25:19;;;;;;;5.72;3.53;;;;;13.50;94182.00;;;;7401536;19;20140;-88
2023/06/17 02:27:54;;;;;;;5.93;3.90;;;;;13.50;94177.00;;;;7402589;19;20166;-87
2023/06/17 02:30:29;;;;;;;10.52;3.58;;;;;13.40;94165.00;;;;7406902;19;20520;-86
2023/06/17 02:33:03;;;;;;;5.70;3.72;;;;;13.50;94164.00;;;;7407695;19;20588;-88
2023/06/17 02:35:31;;;;;;;3.85;3.50;;;;;13.50;94167.00;;;;7408031;19;20147;-87
2023/06/17 02:38:00;;;;;;;8.27;3.10;;;;;13.50;94154.00;;;;7407284;19;20145;-88
2023/06/17 02:40:34;;;;;;;7.07;3.97;;;;;13.40;94162.00;;;;7406860;19;20136;-87
2023/06/17 02:43:09;;;;;;;6.03;3.72;;;;;13.50;94160.00;;;;7408899;19;20153;-88
2023/06/17 02:45:43;;;;;;;6.07;3.80;;;;;13.50;94160.00;;;;7405173;19;20149;-88
2023/06/17 02:48:10;;;;;;;4.82;3.50;;;;;13.50;94157.00;;;;7404815;19;20148;-87
2023/06/17 02:50:45;;;;;;;4.68;3.70;;;;;13.50;94156.00;;;;7408000;19;20144;-87
2023/06/17 02:53:13;;;;;;;3.95;3.30;;;;;13.70;94156.00;;;;7407845;19;20759;-86
2023/06/17 02:55:49;;;;;;;3.85;3.45;;;;;13.80;94161.00;;;;7409759;19;20636;-87
2023/06/17 02:58:25;;;;;;;5.55;3.70;;;;;13.80;94161.00;;;;7407718;19;20571;-87
2023/06/17 03:01:00;;;;;;;4.38;3.28;;;;;13.70;94158.00;;;;7408079;19;20139;-88
2023/06/17 03:03:35;;;;;;;5.55;3.38;;;;;13.60;94161.00;;;;7404931;19;20219;-88
2023/06/17 03:06:09;;;;;;;5.78;3.90;;;;;13.60;94160.00;;;;7407061;19;20149;-86
2023/06/17 03:08:44;;;;;;;4.90;3.78;;;;;13.60;94153.00;;;;7404554;19;20132;-88
2023/06/17 03:11:19;;;;;;;3.92;3.60;;;;;13.40;94157.00;;;;7406707;19;20195;-88
2023/06/17 03:13:53;;;;;;;6.18;3.53;;;;;13.30;94160.00;;;;7407631;19;20667;-87
2023/06/17 03:16:29;;;;;;;5.60;3.50;;;;;13.20;94162.00;;;;7409414;19;20606;-88
2023/06/17 03:18:58;;;;;;;5.60;4.00;;;;;13.30;94166.00;;;;7406981;19;20184;-87
2023/06/17 03:21:35;;;;;;;5.95;3.42;;;;;13.40;94158.00;;;;7407014;19;20165;-87
2023/06/17 03:24:10;;;;;;;6.30;3.38;;;;;13.40;94164.00;;;;7406475;19;20163;-88
2023/06/17 03:26:45;;;;;;;4.35;3.42;;;;;13.40;94166.00;;;;7406769;19;20136;-87
2023/06/17 03:29:13;;;;;;;6.03;3.38;;;;;13.40;94155.00;;;;7401587;19;20137;-88
2023/06/17 03:31:47;;;;;;;4.88;3.80;;;;;13.50;94171.00;;;;7402160;19;20148;-87
2023/06/17 03:34:21;;;;;;;5.00;3.17;;;;;13.50;94162.00;;;;7405551;19;20628;-87
2023/06/17 03:36:57;;;;;;;3.42;3.13;;;;;13.70;94166.00;;;;7407711;19;20116;-88
2023/06/17 03:39:32;;;;;;;3.85;3.45;;;;;13.50;94162.00;;;;7403370;19;20141;-87
2023/06/17 03:42:06;;;;;;;6.72;3.58;;;;;13.50;94164.00;;;;7404066;19;20145;-87
2023/06/17 03:44:40;;;;;;;6.55;3.53;;;;;13.60;94162.00;;;;7406557;19;20146;-89
2023/06/17 03:47:17;;;;;;;5.43;3.55;;;;;13.50;94162.00;;;;7406825;19;20137;-86
2023/06/17 03:49:51;;;;;;;4.45;2.95;;;;;13.60;94158.00;;;;7403021;19;20150;-87
2023/06/17 03:52:25;;;;;;;3.97;3.33;;;;;13.60;94162.00;;;;7405002;19;20143;-87
2023/06/17 03:55:00;;;;;;;4.38;3.40;;;;;13.60;94170.00;;;;7406464;19;20128;-88
2023/06/17 03:57:35;;;;;;;4.75;3.55;;;;;13.70;94164.00;;;;7406642;19;20166;-92
2023/06/17 04:00:11;;;;;;;12.07;3.60;;;;;13.80;94165.00;;;;7410304;19;20145;-92
2023/06/17 04:02:44;;;;;;;5.93;3.25;;;;;13.80;94162.00;;;;7410518;19;20184;-92
2023/06/17 04:05:32;;;;;;;4.15;3.45;;;;;13.80;94161.00;;;;7408732;19;20170;-92
2023/06/17 04:08:07;;;;;;;3.22;2.90;;;;;14.00;94167.00;;;;7408866;19;20129;-93
2023/06/17 04:10:35;;;;;;;6.25;3.30;;;;;14.10;94165.00;;;;7407909;19;20162;-92
2023/06/17 04:13:03;;;;;;;4.00;3.40;;;;;14.30;94167.00;;;;7410021;19;20133;-91
2023/06/17 04:15:37;;;;;;;7.55;3.75;;;;;14.30;94167.00;;;;7408084;19;20161;-91
2023/06/17 04:18:05;;;;;;;4.35;3.45;;;;;14.30;94165.00;;;;7403432;19;20154;-92
2023/06/17 04:20:34;;;;;;;5.35;3.78;;;;;14.40;94167.00;;;;7407075;19;20145;-92
2023/06/17 04:23:09;;;;;;;5.15;3.45;;;;;14.50;94164.00;;;;7404507;19;20165;-91
2023/06/17 04:25:40;;;;;;;5.53;3.35;;;;;14.60;94168.00;;;;7407064;19;20141;-91
2023/06/17 04:28:17;;;;;;;3.60;3.10;;;;;14.70;94165.00;;;;7404574;19;20157;-92
2023/06/17 04:30:45;;;;;;;5.20;3.47;;;;;14.80;94165.00;;;;7405567;19;20129;-91
2023/06/17 04:33:20;;;;;;;3.95;3.45;;;;;15.00;94160.00;;;;7403716;19;20609;-92
2023/06/17 04:35:55;;;;;;;4.07;3.50;;;;;14.90;94163.00;;;;7406709;19;20186;-92
2023/06/17 04:38:30;;;;;;;3.67;3.35;;;;;15.00;94166.00;;;;7407387;19;20584;-91
2023/06/17 04:40:58;;;;;;;5.82;3.75;;;;;15.10;94167.00;;;;7405996;19;20148;-91
2023/06/17 04:43:36;;;;;;;6.05;3.40;;;;;15.40;94165.00;;;;7406553;19;20157;-92
2023/06/17 04:46:12;;;;;;;7.35;3.70;;;;;15.70;94164.00;;;;7407280;19;20161;-92
2023/06/17 04:48:40;;;;;;;4.47;3.50;;;;;15.80;94157.00;;;;7403291;19;20150;-92
2023/06/17 04:51:17;;;;;;;4.63;3.90;;;;;16.00;94157.00;;;;7406220;19;20144;-92
2023/06/17 04:53:52;;;;;;;6.55;3.55;;;;;16.10;94154.00;;;;7407527;19;20144;-92
2023/06/17 04:56:19;;;;;;;4.30;3.72;;;;;16.20;94162.00;;;;7404868;19;20151;-91
2023/06/17 04:58:54;;;;;;;5.95;3.47;;;;;16.30;94157.00;;;;7408159;19;20620;-93
2023/06/17 05:01:22;;;;;;;4.18;3.60;;;;;16.30;94155.00;;;;7407328;19;20136;-92
2023/06/17 05:04:03;;;;;;;4.10;3.70;;;;;16.50;94156.00;;;;7405494;19;20164;-91
2023/06/17 05:06:38;;;;;;;4.00;3.35;;;;;16.70;94155.00;;;;7407640;19;20148;-90
2023/06/17 05:09:06;;;;;;;5.70;3.85;;;;;16.80;94164.00;;;;7404896;19;20180;-94
2023/06/17 05:11:42;;;;;;;5.90;3.42;;;;;17.20;94161.00;;;;7407819;19;20148;-92
2023/06/17 05:14:16;;;;;;;7.50;3.28;;;;;17.40;94157.00;;;;7404848;19;20537;-92
2023/06/17 05:16:44;;;;;;;5.97;3.15;;;;;17.50;94167.00;;;;7390487;19;20652;-92
2023/06/17 05:19:19;;;;;;;4.28;3.65;;;;;17.70;94159.00;;;;7391368;19;20587;-92
2023/06/17 05:21:47;;;;;;;5.43;3.80;;;;;17.80;94164.00;;;;7397789;19;20232;-92
2023/06/17 05:24:22;;;;;;;10.77;3.90;;;;;18.00;94169.00;;;;7399824;19;20170;-92
2023/06/17 05:26:56;;;;;;;6.13;3.72;;;;;18.20;94161.00;;;;7398651;19;20153;-92
2023/06/17 05:29:24;;;;;;;6.80;3.80;;;;;18.40;94166.00;;;;7398912;19;20152;-92
2023/06/17 05:31:58;;;;;;;4.50;3.45;;;;;18.60;94162.00;;;;7399098;19;20132;-92
2023/06/17 05:34:25;;;;;;;6.07;3.67;;;;;18.80;94165.00;;;;7397583;19;20639;-91
2023/06/17 05:37:00;;;;;;;7.32;3.53;;;;;18.90;94164.00;;;;7400983;19;20610;-91
2023/06/17 05:39:27;;;;;;;7.05;4.20;;;;;19.10;94177.00;;;;7399884;19;20161;-91
2023/06/17 05:42:02;;;;;;;4.07;3.55;;;;;19.40;94165.00;;;;7397319;19;20176;-92
2023/06/17 05:44:29;;;;;;;5.20;3.58;;;;;19.50;94169.00;;;;7397774;19;20159;-90
2023/06/17 05:46:57;;;;;;;3.67;3.38;;;;;19.70;94168.00;;;;7399079;19;20197;-91
2023/06/17 05:49:32;;;;;;;4.72;3.50;;;;;19.80;94172.00;;;;7395933;19;20156;-90
2023/06/17 05:52:00;;;;;;;4.00;3.30;;;;;20.10;94171.00;;;;7394932;19;20175;-91
2023/06/17 05:54:34;;;;;;;8.52;3.45;;;;;20.30;94173.00;;;;7397873;19;20156;-90
2023/06/17 05:57:08;;;;;;;4.10;3.70;;;;;20.70;94180.00;;;;7397981;19;20157;-91
2023/06/17 05:59:42;;;;;;;4.40;3.55;;;;;21.10;94179.00;;;;7397356;19;20156;-91
2023/06/17 06:02:15;;;;;;;4.93;3.67;;;;;21.70;94172.00;;;;7395166;19;20644;-90
2023/06/17 06:04:58;;;;;;;4.97;3.78;;;;;21.80;94180.00;;;;7406545;19;20182;-90
2023/06/17 06:07:34;;;;;;;4.15;3.75;;;;;21.90;94184.00;;;;7405873;19;20145;-89
2023/06/17 06:10:09;;;;;;;4.03;3.60;;;;;22.10;94180.00;;;;7403369;19;20144;-90
2023/06/17 06:12:45;;;;;;;4.65;3.70;;;;;22.30;94182.00;;;;7401069;19;20508;-90
2023/06/17 06:15:20;;;;;;;4.53;3.72;;;;;22.40;94184.00;;;;7400007;19;20506;-90
2023/06/17 06:17:55;;;;;;;4.65;3.63;;;;;22.60;94195.00;;;;7402242;19;20132;-90
2023/06/17 06:20:30;;;;;;;5.72;3.70;;;;;22.90;94191.00;;;;7400644;19;20176;-91
2023/06/17 06:22:59;;;;;;;4.07;3.45;;;;;23.00;94176.00;;;;7402189;19;20148;-91
2023/06/17 06:25:33;;;;;;;4.60;4.03;;;;;23.70;94185.00;;;;7402709;19;20152;-92
2023/06/17 06:28:01;;;;;;;5.43;3.92;;;;;24.10;94188.00;;;;7400429;19;20136;-93
2023/06/17 06:30:35;;;;;;;8.05;3.88;;;;;23.60;94190.00;;;;7400489;19;20181;-91
2023/06/17 06:33:09;;;;;;;7.38;4.00;;;;;24.20;94201.00;;;;7403440;19;20129;-91
2023/06/17 06:35:44;;;;;;;4.95;4.00;;;;;24.20;94199.00;;;;7403936;19;20208;-92
2023/06/17 06:38:12;;;;;;;4.18;3.78;;;;;24.80;94195.00;;;;7409059;19;20166;-92
2023/06/17 06:40:46;;;;;;;5.85;4.20;;;;;25.50;94197.00;;;;7421147;19;20145;-91
2023/06/17 06:43:20;;;;;;;4.40;4.00;;;;;25.30;94196.00;;;;7421700;19;20160;-91
2023/06/17 06:45:54;;;;;;;5.65;4.30;;;;;25.30;94199.00;;;;7423216;19;20133;-92
2023/06/17 06:48:25;;;;;;;5.18;4.10;;;;;25.00;94196.00;;;;7419810;19;20164;-91
2023/06/17 06:51:01;;;;;;;6.03;3.72;;;;;25.30;94207.00;;;;7399113;19;20156;-90
2023/06/17 06:53:35;;;;;;;12.85;4.38;;;;;25.60;94213.00;;;;7405986;19;20173;-90
2023/06/17 06:56:03;;;;;;;8.38;4.05;;;;;25.80;94207.00;;;;7418315;19;20148;-90
2023/06/17 06:58:59;;;;;;;4.57;3.90;;;;;25.20;94211.00;;;;7419890;19;22200;-90
2023/06/17 07:01:34;;;;;;;4.47;4.07;;;;;25.10;94208.00;;;;7419881;19;20675;-90
2023/06/17 07:04:21;;;;;;;10.68;3.88;;;;;25.00;94211.00;;;;7420916;19;20172;-89
2023/06/17 07:06:56;;;;;;;9.23;4.90;;;;;25.10;94211.00;;;;7420150;19;20141;-92
2023/06/17 07:09:30;;;;;;;7.57;4.43;;;;;24.80;94215.00;;;;7425772;19;20139;-90
2023/06/17 07:12:04;;;;;;;10.90;4.50;;;;;24.50;94213.00;;;;7425559;19;20148;-91
2023/06/17 07:14:39;;;;;;;5.70;4.20;;;;;24.30;94213.00;;;;7419946;19;20184;-90
2023/06/17 07:17:13;;;;;;;5.93;4.22;;;;;24.30;94217.00;;;;7421954;19;20142;-90
2023/06/17 07:19:44;;;;;;;6.60;3.78;;;;;24.00;94214.00;;;;7412296;19;20149;-89
2023/06/17 07:22:18;;;;;;;6.55;4.18;;;;;23.90;94211.00;;;;7397753;19;20182;-88
2023/06/17 07:24:46;;;;;;;4.05;3.65;;;;;24.10;94208.00;;;;7398140;19;20181;-89
2023/06/17 07:27:20;;;;;;;5.35;3.65;;;;;24.10;94210.00;;;;7397097;19;20181;-89
2023/06/17 07:29:48;;;;;;;4.32;3.75;;;;;23.30;94214.00;;;;7395643;19;20168;-91
2023/06/17 07:32:16;;;;;;;5.07;3.88;;;;;23.30;94210.00;;;;7396179;19;20128;-90
2023/06/17 07:34:50;;;;;;;4.47;3.83;;;;;23.90;94211.00;;;;7398117;19;20181;-92
2023/06/17 07:37:19;;;;;;;4.15;3.75;;;;;23.80;94204.00;;;;7396930;19;20150;-92
2023/06/17 07:39:56;;;;;;;5.43;3.95;;;;;24.10;94210.00;;;;7399269;19;20628;-92
2023/06/17 07:42:30;;;;;;;4.85;3.90;;;;;23.60;94208.00;;;;7392907;19;20161;-93
2023/06/17 07:45:05;;;;;;;10.30;3.70;;;;;23.70;94207.00;;;;7395193;19;20152;-86
2023/06/17 07:47:39;;;;;;;4.55;3.80;;;;;24.60;94199.00;;;;7396363;19;20140;-85
2023/06/17 07:50:09;;;;;;;5.22;3.72;;;;;24.70;94196.00;;;;7388627;19;20534;-87
2023/06/17 07:52:46;;;;;;;6.07;3.75;;;;;24.00;94200.00;;;;7393944;19;20212;-92
2023/06/17 07:55:13;;;;;;;7.63;3.60;;;;;24.30;94224.00;;;;7394244;19;20636;-91
2023/06/17 07:57:48;;;;;;;4.50;3.25;;;;;22.50;94232.00;;;;7395080;19;20177;-93
2023/06/17 08:00:16;;;;;;;4.72;3.40;;;;;21.80;94221.00;;;;7396413;19;20129;-92
2023/06/17 08:02:51;;;;;;;5.45;3.67;;;;;22.70;94202.00;;;;7399389;19;20180;-90
2023/06/17 08:05:31;;;;;;;5.18;3.28;;;;;24.20;94202.00;;;;7396480;19;20173;-90
2023/06/17 08:07:59;;;;;;;4.82;3.40;;;;;24.50;94195.00;;;;7394086;19;20137;-90
2023/06/17 08:10:36;;;;;;;6.00;3.35;;;;;24.80;94198.00;;;;7395264;19;20148;-96
2023/06/17 08:13:16;;;;;;;5.32;3.08;;;;;25.10;94191.00;;;;7392334;19;20125;-90
2023/06/17 08:15:51;;;;;;;7.00;3.47;;;;;25.30;94195.00;;;;7392771;19;20144;-92
2023/06/17 08:18:26;;;;;;;5.90;3.10;;;;;24.50;94193.00;;;;7392938;19;20608;-90
2023/06/17 08:21:00;;;;;;;4.10;2.92;;;;;25.50;94191.00;;;;7394056;19;20144;-93
2023/06/17 08:23:35;;;;;;;5.38;3.20;;;;;25.20;94195.00;;;;7392763;19;20742;-90
2023/06/17 08:26:09;;;;;;;4.47;3.53;;;;;25.30;94196.00;;;;7394938;19;21064;-93
2023/06/17 08:28:45;;;;;;;7.32;3.97;;;;;25.50;94203.00;;;;7395629;19;20156;-93
2023/06/17 08:31:19;;;;;;;5.63;3.78;;;;;25.60;94199.00;;;;7393669;19;20500;-91
2023/06/17 08:33:53;;;;;;;4.13;3.75;;;;;25.10;94202.00;;;;7396212;19;20140;-90
2023/06/17 08:36:28;;;;;;;4.57;3.60;;;;;25.70;94183.00;;;;7396261;19;20152;-91
2023/06/17 08:39:02;;;;;;;6.95;3.60;;;;;25.70;94184.00;;;;7395647;19;21245;-91
2023/06/17 08:41:42;;;;;;;4.32;3.40;;;;;25.90;94194.00;;;;7394169;19;20165;-91
2023/06/17 08:44:11;;;;;;;7.70;3.65;;;;;26.80;94191.00;;;;7393139;19;20200;-92
2023/06/17 08:46:50;;;;;;;4.00;3.42;;;;;26.00;94198.00;;;;7390970;19;20140;-91
2023/06/17 08:49:18;;;;;;;3.53;3.10;;;;;25.40;94189.00;;;;7393344;19;20144;-88
2023/06/17 08:51:54;;;;;;;3.90;3.20;;;;;25.20;94183.00;;;;7390861;19;20148;-91
2023/06/17 08:54:31;;;;;;;4.05;2.95;;;;;25.40;94197.00;;;;7395518;19;20129;-89
2023/06/17 08:56:59;;;;;;;3.47;2.97;;;;;25.30;94190.00;;;;7391524;19;20148;-94
2023/06/17 08:59:35;;;;;;;6.95;2.92;;;;;25.70;94185.00;;;;7389809;19;20173;-91
2023/06/17 09:02:04;;;;;;;4.72;3.25;;;;;25.70;94194.00;;;;7390486;19;20201;-88
2023/06/17 09:04:46;;;;;;;4.03;3.20;;;;;26.40;94180.00;;;;7394531;19;20186;-94
2023/06/17 09:07:22;;;;;;;4.75;3.38;;;;;25.60;94207.00;;;;7394062;19;20177;-94
2023/06/17 09:10:05;;;;;;;6.40;3.45;;;;;25.80;94225.00;;;;7394289;19;20154;-93
2023/06/17 09:12:40;;;;;;;4.38;3.33;;;;;24.30;94219.00;;;;7391531;19;20129;-88
2023/06/17 09:15:16;;;;;;;4.30;3.33;;;;;24.00;94195.00;;;;7390164;19;20173;-90
2023/06/17 09:17:57;;;;;;;3.30;3.00;;;;;24.40;94196.00;;;;7389682;19;20152;-90
2023/06/17 09:20:25;;;;;;;3.83;2.95;;;;;24.80;94191.00;;;;7391521;19;20156;-89
2023/06/17 09:23:00;;;;;;;4.90;3.10;;;;;26.50;94178.00;;;;7389055;19;20136;-92
2023/06/17 09:25:33;;;;;;;4.80;3.10;;;;;25.00;94189.00;;;;7390439;19;20145;-85
2023/06/17 09:28:09;;;;;;;5.03;3.20;;;;;25.60;94190.00;;;;7390130;19;20478;-87
2023/06/17 09:30:57;;;;;;;5.35;3.90;;;;;25.90;94185.00;;;;7389394;19;20179;-93
2023/06/17 09:33:32;;;;;;;7.10;3.83;;;;;26.60;94184.00;;;;7390545;19;20152;-89
2023/06/17 09:36:08;;;;;;;4.05;3.17;;;;;26.40;94179.00;;;;7387553;19;20635;-88
2023/06/17 09:38:39;;;;;;;3.72;3.30;;;;;26.30;94179.00;;;;7391675;19;20132;-87
2023/06/17 09:41:18;;;;;;;8.18;3.83;;;;;27.20;94214.00;;;;7398816;19;20144;-92
2023/06/17 09:43:52;;;;;;;3.88;2.95;;;;;26.00;94198.00;;;;7398785;19;20157;-91
2023/06/17 09:46:35;;;;;;;5.28;3.20;;;;;24.60;94214.00;;;;7398209;19;20165;-89
2023/06/17 09:49:15;;;;;;;4.00;3.60;;;;;25.50;94184.00;;;;7394458;19;20185;-90
2023/06/17 09:51:52;;;;;;;4.18;3.78;;;;;26.20;94180.00;;;;7394261;19;20190;-93
2023/06/17 09:54:20;;;;;;;4.05;3.65;;;;;26.20;94184.00;;;;7395073;19;20157;-94
2023/06/17 09:57:01;;;;;;;5.97;3.53;;;;;27.10;94171.00;;;;7399352;19;20132;-94
2023/06/17 09:59:35;;;;;;;5.22;3.10;;;;;28.60;94169.00;;;;7397352;19;20152;-93
2023/06/17 10:02:10;;;;;;;5.07;4.00;;;;;27.80;94172.00;;;;7397945;19;20705;-88
2023/06/17 10:04:44;;;;;;;4.13;3.70;;;;;28.20;94161.00;;;;7395136;19;20169;-92
2023/06/17 10:07:29;;;;;;;4.32;3.47;;;;;27.70;94157.00;;;;7396431;19;20156;-90
2023/06/17 10:09:59;;;;;;;5.53;3.78;;;;;28.00;94197.00;;;;7395323;19;20178;-86
2023/06/17 10:12:36;;;;;;;5.05;3.90;;;;;26.40;94165.00;;;;7392727;19;20256;-86
2023/06/17 10:15:12;;;;;;;3.88;3.40;;;;;27.00;94205.00;;;;7397957;19;20156;-92
2023/06/17 10:17:48;;;;;;;4.57;3.72;;;;;25.30;94199.00;;;;7397090;19;20212;-88
2023/06/17 10:20:18;;;;;;;4.40;4.00;;;;;23.90;94211.00;;;;7394745;19;20497;-93
2023/06/17 10:22:55;;;;;;;7.38;3.63;;;;;22.90;94192.00;;;;7395584;19;20159;-91
2023/06/17 10:25:24;;;;;;;7.72;4.28;;;;;25.20;94167.00;;;;7399255;19;20229;-86
2023/06/17 10:28:03;;;;;;;4.93;4.00;;;;;25.70;94167.00;;;;7395202;19;20129;-85
2023/06/17 10:30:32;;;;;;;4.80;4.05;;;;;27.60;94152.00;;;;7393890;19;20174;-86
2023/06/17 10:33:08;;;;;;;5.10;4.05;;;;;28.10;94154.00;;;;7396336;19;20482;-88
2023/06/17 10:35:40;;;;;;;8.95;3.38;;;;;28.70;94153.00;;;;7395220;19;20769;-85
2023/06/17 10:38:34;;;;;;;5.22;3.67;;;;;27.80;94164.00;;;;7395609;19;20124;-87
2023/06/17 10:41:09;;;;;;;4.25;3.67;;;;;26.90;94152.00;;;;7396068;19;20152;-83
2023/06/17 10:43:44;;;;;;;4.10;3.70;;;;;27.90;94145.00;;;;7391984;19;20472;-84
2023/06/17 10:46:25;;;;;;;3.42;3.03;;;;;27.80;94145.00;;;;7391005;19;20616;-84
2023/06/17 10:48:58;;;;;;;8.82;3.42;;;;;28.10;94157.00;;;;7389930;19;20160;-84
2023/06/17 10:51:33;;;;;;;4.43;4.03;;;;;28.50;94151.00;;;;7390503;19;20135;-90
2023/06/17 10:54:33;;;;;;;4.32;3.80;;;;;27.80;94146.00;;;;7392526;19;20157;-85
2023/06/17 10:57:08;;;;;;;3.95;3.65;;;;;27.70;94141.00;;;;7394183;19;20617;-84
2023/06/17 10:59:35;;;;;;;5.13;3.50;;;;;27.70;94145.00;;;;7392873;19;20152;-84
2023/06/17 11:02:10;;;;;;;4.28;3.53;;;;;29.20;94147.00;;;;7396395;19;20155;-88
2023/06/17 11:04:46;;;;;;;3.70;3.40;;;;;28.50;94145.00;;;;7396136;19;20236;-87
2023/06/17 11:07:27;;;;;;;5.40;3.70;;;;;28.20;94151.00;;;;7394096;19;20136;-88
2023/06/17 11:10:03;;;;;;;4.10;3.47;;;;;28.40;94143.00;;;;7394333;19;20153;-84
2023/06/17 11:12:39;;;;;;;3.90;3.50;;;;;27.10;94160.00;;;;7395211;19;20143;-85
2023/06/17 11:15:08;;;;;;;4.13;3.78;;;;;27.20;94144.00;;;;7397753;19;20146;-89
2023/06/17 11:17:43;;;;;;;4.65;3.65;;;;;28.70;94145.00;;;;7394091;19;20125;-87
2023/06/17 11:20:17;;;;;;;5.85;3.80;;;;;28.00;94188.00;;;;7391582;19;20153;-86
2023/06/17 11:22:51;;;;;;;5.20;3.67;;;;;25.60;94150.00;;;;7391252;19;20174;-87
2023/06/17 11:25:28;;;;;;;5.88;3.83;;;;;25.80;94144.00;;;;7392720;19;20199;-86
2023/06/17 11:28:12;;;;;;;5.15;3.55;;;;;27.10;94146.00;;;;7399002;19;20125;-84
2023/06/17 11:30:46;;;;;;;7.07;4.20;;;;;26.90;94142.00;;;;7394058;19;20144;-91
2023/06/17 11:33:18;;;;;;;5.30;3.83;;;;;27.00;94147.00;;;;7399990;19;20161;-90
2023/06/17 11:35:50;;;;;;;6.70;3.88;;;;;27.70;94134.00;;;;7398767;19;20152;-88
2023/06/17 11:38:26;;;;;;;7.22;4.13;;;;;28.40;94132.00;;;;7396217;19;20149;-90
2023/06/17 11:41:01;;;;;;;4.53;3.88;;;;;28.20;94130.00;;;;7397816;19;22756;-86
2023/06/17 11:43:35;;;;;;;4.47;3.63;;;;;28.60;94122.00;;;;7397838;19;20178;-89
2023/06/17 11:46:04;;;;;;;6.90;3.80;;;;;28.70;94130.00;;;;7396031;19;20621;-88
2023/06/17 11:48:39;;;;;;;6.28;4.22;;;;;28.60;94124.00;;;;7395082;19;20156;-92
2023/06/17 11:51:17;;;;;;;4.65;4.10;;;;;29.90;94125.00;;;;7394157;19;20153;-93
2023/06/17 11:53:51;;;;;;;3.97;3.65;;;;;29.30;94129.00;;;;7397906;19;20519;-93
2023/06/17 11:56:20;;;;;;;4.60;3.80;;;;;30.00;94124.00;;;;7395673;19;20136;-92
2023/06/17 11:58:56;;;;;;;8.98;3.78;;;;;29.80;94124.00;;;;7395987;19;20148;-94
2023/06/17 12:01:30;;;;;;;4.43;3.55;;;;;28.20;94132.00;;;;7394506;19;20156;-87
2023/06/17 12:04:11;;;;;;;3.60;3.30;;;;;29.30;94120.00;;;;7399102;19;20184;-91
2023/06/17 12:06:47;;;;;;;7.70;3.55;;;;;27.80;94116.00;;;;7394355;19;20195;-93
2023/06/17 12:09:21;;;;;;;8.25;4.55;;;;;28.60;94120.00;;;;7395325;19;20167;-92
2023/06/17 12:11:49;;;;;;;3.85;3.45;;;;;29.30;94126.00;;;;7396230;19;20148;-84
2023/06/17 12:14:20;;;;;;;4.18;3.75;;;;;29.70;94118.00;;;;7391772;19;20145;-85
2023/06/17 12:16:54;;;;;;;6.13;3.45;;;;;29.40;94114.00;;;;7390257;19;20256;-89
2023/06/17 12:19:30;;;;;;;6.78;3.50;;;;;29.20;94117.00;;;;7389474;19;20153;-85
2023/06/17 12:22:00;;;;;;;3.63;3.33;;;;;30.50;94107.00;;;;7389792;19;20178;-86
2023/06/17 12:24:35;;;;;;;6.47;4.15;;;;;30.80;94110.00;;;;7391828;19;20136;-89
2023/06/17 12:27:08;;;;;;;7.88;3.22;;;;;30.60;94116.00;;;;7397788;19;20160;-90
2023/06/17 12:29:44;;;;;;;3.90;3.50;;;;;29.70;94105.00;;;;7400511;19;20559;-92
2023/06/17 12:32:13;;;;;;;7.90;4.00;;;;;28.50;94113.00;;;;7397403;19;20220;-89
2023/06/17 12:34:48;;;;;;;3.85;3.50;;;;;29.90;94108.00;;;;7396563;19;20160;-91
2023/06/17 12:37:21;;;;;;;4.20;3.35;;;;;30.00;94101.00;;;;7399452;19;20153;-93
2023/06/17 12:40:04;;;;;;;4.93;3.72;;;;;30.40;94092.00;;;;7394419;19;20176;-91
2023/06/17 12:42:32;;;;;;;4.10;3.65;;;;;29.80;94090.00;;;;7391571;19;20148;-84
2023/06/17 12:45:06;;;;;;;5.15;4.47;;;;;28.60;94104.00;;;;7393948;19;20523;-88
2023/06/17 12:47:41;;;;;;;4.00;3.60;;;;;28.00;94087.00;;;;7393483;19;20639;-89
2023/06/17 12:50:09;;;;;;;8.15;3.88;;;;;30.00;94088.00;;;;7394556;19;20173;-89
2023/06/17 12:52:49;;;;;;;4.30;3.28;;;;;28.20;94089.00;;;;7393323;19;20144;-91